Rockbridge, Missouri
Current Conditions -  °F | °C
As of 3:53 PM on Monday 24 Nov 2014 (Local Time) from KUNO Reporting Station
Few Clouds Few Clouds  
Wind Chill: 44°   Ceiling: Unl
Heat Index: 48°   Visibility: 10mi
Dew Point: 27°   Wind: 8mph
Humidity: 44%   Direction: 270°W
Pressure: 29.85"   Gusts: 22mph
Location:  36.79°N, 92.41°W
Report Text: KUNO 242153Z AUTO 27007G19KT 10SM FEW065 09/M03 A2985 RMK AO2 PK WND 28026/2105 SLP110 T00891028
Loading
Personal Weather Stations






























Interactive Weather Map New forecast layout! Learn more

10-Day Weather Forecast

Advertisements
Track Severe Weather on mobile